createdAt,value
2018-05-16T00:01:51.395Z,36.50
2018-05-16T00:04:18.956Z,36.60
2018-05-16T00:06:46.454Z,36.70
2018-05-16T00:09:14.021Z,36.80
2018-05-16T00:11:41.496Z,36.90
2018-05-16T00:14:08.988Z,37.00
2018-05-16T00:16:36.687Z,37.10
2018-05-16T00:19:04.964Z,37.20
2018-05-16T00:21:32.443Z,37.20
2018-05-16T00:24:00.099Z,37.20
2018-05-16T00:26:27.600Z,37.30
2018-05-16T00:28:55.870Z,37.50
2018-05-16T00:31:23.404Z,37.60
2018-05-16T00:33:50.995Z,37.50
2018-05-16T00:36:18.577Z,37.50
2018-05-16T00:38:46.060Z,37.60
2018-05-16T00:41:14.311Z,38.10
2018-05-16T00:43:41.807Z,37.70
2018-05-16T00:46:09.272Z,37.70
2018-05-16T00:48:36.754Z,37.70
2018-05-16T00:51:16.045Z,37.80
2018-05-16T00:53:43.539Z,37.90
2018-05-16T00:56:11.008Z,37.80
2018-05-16T00:58:38.541Z,37.90
2018-05-16T01:01:06.766Z,38.20
2018-05-16T01:03:34.252Z,38.30
2018-05-16T01:06:01.733Z,38.10
2018-05-16T01:08:29.213Z,38.40
2018-05-16T01:10:57.583Z,38.50
2018-05-16T01:13:25.074Z,39.20
2018-05-16T01:15:52.548Z,38.50
2018-05-16T01:18:20.126Z,38.50
2018-05-16T01:20:47.591Z,38.60
2018-05-16T01:23:15.071Z,38.60
2018-05-16T01:25:42.630Z,38.50
2018-05-16T01:28:10.093Z,38.50
2018-05-16T01:30:37.575Z,38.60
2018-05-16T01:33:05.047Z,38.60
2018-05-16T01:35:32.577Z,38.80
2018-05-16T01:38:00.143Z,38.80
2018-05-16T01:40:27.750Z,38.80
2018-05-16T01:42:55.262Z,38.80
2018-05-16T01:45:23.539Z,39.10
2018-05-16T01:47:51.782Z,39.20
2018-05-16T01:50:19.375Z,39.30
2018-05-16T01:52:46.849Z,39.30
2018-05-16T01:55:14.327Z,39.30
2018-05-16T01:57:41.791Z,39.30
2018-05-16T02:00:09.290Z,39.30
2018-05-16T02:02:37.531Z,39.50
2018-05-16T02:05:05.014Z,39.60
2018-05-16T02:07:32.477Z,39.60
2018-05-16T02:10:00.071Z,39.60
2018-05-16T02:12:27.568Z,39.60
2018-05-16T02:14:55.070Z,39.70
2018-05-16T02:17:22.604Z,39.90
2018-05-16T02:19:50.103Z,39.90
2018-05-16T02:22:18.368Z,40.10
2018-05-16T02:24:45.868Z,40.20
2018-05-16T02:27:13.347Z,40.10
2018-05-16T02:29:40.833Z,40.10
2018-05-16T02:32:08.337Z,40.00
2018-05-16T02:34:35.832Z,39.90
2018-05-16T02:37:03.304Z,40.10
2018-05-16T02:39:31.556Z,40.20
2018-05-16T02:41:59.023Z,40.30
2018-05-16T02:44:26.534Z,40.40
2018-05-16T02:46:54.034Z,40.30
2018-05-16T02:49:21.511Z,40.40
2018-05-16T02:51:48.967Z,40.50
2018-05-16T02:54:16.572Z,40.60
2018-05-16T02:56:43.959Z,40.70
2018-05-16T02:59:11.435Z,40.70
2018-05-16T03:01:38.920Z,40.80
2018-05-16T03:04:06.429Z,40.90
2018-05-16T03:06:33.899Z,40.90
2018-05-16T03:09:01.536Z,41.00
2018-05-16T03:11:29.022Z,41.00
2018-05-16T03:13:56.643Z,41.10
2018-05-16T03:16:24.360Z,41.20
2018-05-16T03:18:51.886Z,41.20
2018-05-16T03:21:19.351Z,41.20
2018-05-16T03:23:46.811Z,41.10
2018-05-16T03:26:14.318Z,41.20
2018-05-16T03:28:41.784Z,41.20
2018-05-16T03:31:09.293Z,41.20
2018-05-16T03:33:37.539Z,41.40
2018-05-16T03:36:05.042Z,41.50
2018-05-16T03:38:32.675Z,41.40
2018-05-16T03:41:00.351Z,41.50
2018-05-16T03:43:27.876Z,41.50
2018-05-16T03:45:55.480Z,41.60
2018-05-16T03:48:22.983Z,41.60
2018-05-16T03:50:50.478Z,41.60
2018-05-16T03:53:17.947Z,41.60
2018-05-16T03:55:45.434Z,41.70
2018-05-16T04:01:27.124Z,42.00
2018-05-16T04:04:19.296Z,42.00
2018-05-16T04:06:46.764Z,41.90
2018-05-16T04:09:15.136Z,41.90
2018-05-16T04:11:42.640Z,42.00
2018-05-16T04:14:10.099Z,42.00
2018-05-16T04:16:37.597Z,42.00
2018-05-16T04:19:05.106Z,42.10
2018-05-16T04:21:33.533Z,42.20
2018-05-16T04:24:01.173Z,42.30
2018-05-16T04:26:29.445Z,42.30
2018-05-16T04:28:56.948Z,42.30
2018-05-16T04:31:24.447Z,42.30
2018-05-16T04:33:51.963Z,42.50
2018-05-16T04:36:20.384Z,42.60
2018-05-16T04:38:47.853Z,42.70
2018-05-16T04:41:15.365Z,42.70
2018-05-16T04:43:42.848Z,42.70
2018-05-16T04:46:10.345Z,42.70
2018-05-16T04:48:38.597Z,42.80
2018-05-16T04:51:06.104Z,42.90
2018-05-16T04:53:33.699Z,42.90
2018-05-16T04:56:01.307Z,42.90
2018-05-16T04:58:28.772Z,42.90
2018-05-16T05:00:56.371Z,42.90
2018-05-16T05:03:24.542Z,42.90
2018-05-16T05:05:52.017Z,43.00
2018-05-16T05:08:19.495Z,42.90
2018-05-16T05:10:46.975Z,42.90
2018-05-16T05:13:14.480Z,42.90
2018-05-16T05:15:42.019Z,43.00
2018-05-16T05:18:09.541Z,43.00
2018-05-16T05:20:37.738Z,43.20
2018-05-16T05:23:05.243Z,43.20
2018-05-16T05:25:32.719Z,43.30
2018-05-16T05:28:00.207Z,43.50
2018-05-16T05:30:27.685Z,44.10
2018-05-16T05:32:55.258Z,43.70
2018-05-16T05:35:23.599Z,43.90
2018-05-16T05:37:51.103Z,43.90
2018-05-16T05:40:18.583Z,44.00
2018-05-16T05:42:46.076Z,44.10
2018-05-16T05:45:13.553Z,44.20
2018-05-16T05:47:41.133Z,44.30
2018-05-16T05:50:08.600Z,44.20
2018-05-16T05:52:36.086Z,44.10
2018-05-16T05:55:03.567Z,43.90
2018-05-16T05:57:31.044Z,43.80
2018-05-16T06:02:32.352Z,43.60
2018-05-16T06:04:59.852Z,43.50
2018-05-16T06:07:28.245Z,43.80
2018-05-16T06:09:56.595Z,43.40
2018-05-16T06:12:24.079Z,43.40
2018-05-16T06:14:51.558Z,43.40
2018-05-16T06:17:19.039Z,43.50
2018-05-16T06:19:46.635Z,43.60
2018-05-16T06:22:14.791Z,43.70
2018-05-16T06:24:42.312Z,43.70
2018-05-16T06:27:09.850Z,43.60
2018-05-16T06:29:37.319Z,43.70
2018-05-16T06:32:04.784Z,43.90
2018-05-16T06:34:32.288Z,44.00
2018-05-16T06:36:59.751Z,44.10
2018-05-16T06:39:28.159Z,44.10
2018-05-16T06:41:55.650Z,44.00
2018-05-16T06:44:23.135Z,43.90
2018-05-16T06:46:50.610Z,43.90
2018-05-16T06:49:18.124Z,44.00
2018-05-16T06:51:46.356Z,44.30
2018-05-16T06:54:13.943Z,44.40
2018-05-16T06:56:41.416Z,44.60
2018-05-16T06:59:08.895Z,44.80
2018-05-16T07:01:36.364Z,44.90
2018-05-16T07:04:03.910Z,44.90
2018-05-16T07:06:31.517Z,44.90
2018-05-16T07:08:59.848Z,44.90
2018-05-16T07:11:27.363Z,44.90
2018-05-16T07:13:54.935Z,44.90
2018-05-16T07:16:22.387Z,45.00
2018-05-16T07:18:49.870Z,44.80
2018-05-16T07:21:17.380Z,44.80
2018-05-16T07:23:45.704Z,45.10
2018-05-16T07:26:13.178Z,45.10
2018-05-16T07:28:40.663Z,45.40
2018-05-16T07:31:08.129Z,44.60
2018-05-16T07:33:35.619Z,44.30
2018-05-16T07:36:03.080Z,44.10
2018-05-16T07:38:30.573Z,44.00
2018-05-16T07:40:58.099Z,43.70
2018-05-16T07:43:25.640Z,43.80
2018-05-16T07:45:53.111Z,43.80
2018-05-16T07:48:20.591Z,43.80
2018-05-16T07:50:48.058Z,44.70
2018-05-16T07:53:16.315Z,44.80
2018-05-16T07:55:43.852Z,44.80
2018-05-16T07:58:11.330Z,44.20
2018-05-16T08:00:38.798Z,43.60
2018-05-16T08:03:06.289Z,43.20
2018-05-16T08:05:33.769Z,43.00
2018-05-16T08:08:01.262Z,42.70
2018-05-16T08:10:28.786Z,42.50
2018-05-16T08:12:56.287Z,42.30
2018-05-16T08:15:23.787Z,42.10
2018-05-16T08:17:51.281Z,41.90
2018-05-16T08:20:18.824Z,42.40
2018-05-16T08:22:46.315Z,42.70
2018-05-16T08:25:14.552Z,44.00
2018-05-16T08:27:42.193Z,43.90
2018-05-16T08:30:09.736Z,44.10
2018-05-16T08:32:37.965Z,46.80
2018-05-16T08:35:05.484Z,46.20
2018-05-16T08:37:33.095Z,47.20
2018-05-16T08:40:00.693Z,47.90
2018-05-16T08:42:28.228Z,48.20
2018-05-16T08:44:55.766Z,47.20
2018-05-16T08:47:23.267Z,45.20
2018-05-16T08:49:51.540Z,43.20
2018-05-16T08:52:19.019Z,43.10
2018-05-16T08:54:47.279Z,42.20
2018-05-16T08:57:14.777Z,42.10
2018-05-16T08:59:42.277Z,41.80
2018-05-16T09:02:09.751Z,41.30
2018-05-16T09:04:37.250Z,40.80
2018-05-16T09:07:04.723Z,41.00
2018-05-16T09:09:32.235Z,42.50
2018-05-16T09:11:59.779Z,44.10
2018-05-16T09:14:27.315Z,44.00
2018-05-16T09:16:54.819Z,44.00
2018-05-16T09:19:22.353Z,43.40
2018-05-16T09:21:49.931Z,42.20
2018-05-16T09:24:17.421Z,40.70
2018-05-16T09:26:44.912Z,39.40
2018-05-16T09:29:12.392Z,38.30
2018-05-16T09:31:39.867Z,37.40
2018-05-16T09:34:07.352Z,36.80
2018-05-16T09:36:34.821Z,36.50
2018-05-16T09:39:02.317Z,36.20
2018-05-16T09:41:30.584Z,35.90
2018-05-16T09:43:58.856Z,36.30
2018-05-16T09:46:26.336Z,36.20
2018-05-16T09:48:53.867Z,36.80
2018-05-16T09:51:21.380Z,37.30
2018-05-16T09:53:48.872Z,38.00
2018-05-16T09:56:17.159Z,40.40
2018-05-16T09:58:45.572Z,40.30
2018-05-16T10:01:13.039Z,41.90
2018-05-16T10:03:40.530Z,41.90
2018-05-16T10:06:07.993Z,40.80
2018-05-16T10:08:35.497Z,40.00
2018-05-16T10:11:02.979Z,39.30
2018-05-16T10:13:31.257Z,38.60
2018-05-16T10:15:58.797Z,38.50
2018-05-16T10:18:26.432Z,37.90
2018-05-16T10:20:54.738Z,36.50
2018-05-16T10:23:24.491Z,35.80
2018-05-16T10:25:51.999Z,35.70
2018-05-16T10:28:19.463Z,35.60
2018-05-16T10:30:46.967Z,35.70
2018-05-16T10:33:14.426Z,36.70
2018-05-16T10:35:41.928Z,37.40
2018-05-16T10:38:09.401Z,38.10
2018-05-16T10:40:36.888Z,38.00
2018-05-16T10:43:04.356Z,37.50
2018-05-16T10:45:31.828Z,36.80
2018-05-16T10:47:59.323Z,36.20
2018-05-16T10:50:27.047Z,36.00
2018-05-16T10:52:54.450Z,36.00
2018-05-16T10:55:21.946Z,35.90
2018-05-16T10:57:49.406Z,35.60
2018-05-16T11:00:16.903Z,35.20
2018-05-16T11:02:45.191Z,35.00
2018-05-16T11:05:12.672Z,34.80
2018-05-16T11:07:40.185Z,34.80
2018-05-16T11:10:07.712Z,34.90
2018-05-16T11:12:35.359Z,33.90
2018-05-16T11:15:02.851Z,33.80
2018-05-16T11:17:30.398Z,33.70
2018-05-16T11:19:57.916Z,34.50
2018-05-16T11:22:26.181Z,35.80
2018-05-16T11:24:53.679Z,35.70
2018-05-16T11:27:21.942Z,34.60
2018-05-16T11:29:49.468Z,34.50
2018-05-16T11:32:16.941Z,34.00
2018-05-16T11:34:44.559Z,34.30
2018-05-16T11:37:12.024Z,35.20
2018-05-16T11:39:39.504Z,36.10
2018-05-16T11:42:07.105Z,35.80
2018-05-16T11:44:34.626Z,35.40
2018-05-16T11:47:02.212Z,35.50
2018-05-16T11:49:29.703Z,35.00
2018-05-16T11:51:57.199Z,33.50
2018-05-16T11:54:25.710Z,32.50
2018-05-16T11:56:53.211Z,31.40
2018-05-16T11:59:20.818Z,31.30
2018-05-16T12:01:48.287Z,31.20
2018-05-16T12:04:15.772Z,30.70
2018-05-16T12:06:44.057Z,30.20
2018-05-16T12:09:12.390Z,29.90
2018-05-16T12:11:39.846Z,29.80
2018-05-16T12:14:07.335Z,29.70
2018-05-16T12:16:34.882Z,29.70
2018-05-16T12:19:02.366Z,28.10
2018-05-16T12:21:29.945Z,27.00
2018-05-16T12:23:57.443Z,26.20
2018-05-16T12:26:24.941Z,25.50
2018-05-16T12:28:53.247Z,26.40
2018-05-16T12:31:20.702Z,26.30
2018-05-16T12:33:48.171Z,26.90
2018-05-16T12:36:15.695Z,27.20
2018-05-16T12:38:43.192Z,26.70
2018-05-16T12:41:10.683Z,25.90
2018-05-16T12:43:38.139Z,25.60
2018-05-16T12:46:05.787Z,25.00
2018-05-16T12:48:33.255Z,24.20
2018-05-16T12:51:00.758Z,23.80
2018-05-16T12:53:28.237Z,23.70
2018-05-16T12:58:31.129Z,24.30
2018-05-16T13:00:58.623Z,24.20
2018-05-16T13:03:26.162Z,24.00
2018-05-16T13:05:53.997Z,23.80
2018-05-16T13:08:21.496Z,24.00
2018-05-16T13:10:49.003Z,24.50
2018-05-16T13:13:16.470Z,25.00
2018-05-16T13:15:43.969Z,25.50
2018-05-16T13:18:11.510Z,25.90
2018-05-16T13:20:38.929Z,25.30
2018-05-16T13:23:07.216Z,24.80
2018-05-16T13:25:35.470Z,24.50
2018-05-16T13:28:03.712Z,24.40
2018-05-16T13:30:31.220Z,24.20
2018-05-16T13:32:58.912Z,24.10
2018-05-16T13:35:26.538Z,23.30
2018-05-16T13:37:54.019Z,22.80
2018-05-16T13:40:21.532Z,22.30
2018-05-16T13:42:48.984Z,21.90
2018-05-16T13:45:16.465Z,21.40
2018-05-16T13:47:43.927Z,21.20
2018-05-16T13:50:11.407Z,20.90
2018-05-16T13:52:38.915Z,21.10
2018-05-16T13:55:06.441Z,21.30
2018-05-16T13:57:33.937Z,21.40
2018-05-16T14:00:01.461Z,21.30
2018-05-16T14:02:28.944Z,21.50
2018-05-16T14:04:56.479Z,21.30
2018-05-16T14:07:24.782Z,20.80
2018-05-16T14:09:52.277Z,20.70
2018-05-16T14:12:19.827Z,20.80
2018-05-16T14:14:47.319Z,20.80
2018-05-16T14:17:14.783Z,20.70
2018-05-16T14:19:42.263Z,20.60
2018-05-16T14:22:09.785Z,20.60
2018-05-16T14:24:37.272Z,20.40
2018-05-16T14:27:05.599Z,20.60
2018-05-16T14:29:33.094Z,20.60
2018-05-16T14:32:00.591Z,20.30
2018-05-16T14:34:28.072Z,20.00
2018-05-16T14:36:56.422Z,20.10
2018-05-16T14:39:23.914Z,20.00
2018-05-16T14:41:52.179Z,20.30
2018-05-16T14:44:19.657Z,20.10
2018-05-16T14:46:47.145Z,20.10
2018-05-16T14:49:14.612Z,19.90
2018-05-16T14:51:42.106Z,19.80
2018-05-16T14:54:10.346Z,19.70
2018-05-16T14:56:37.819Z,19.60
2018-05-16T14:59:05.320Z,19.70
2018-05-16T15:01:32.827Z,19.70
2018-05-16T15:04:00.292Z,19.70
2018-05-16T15:06:27.797Z,19.90
2018-05-16T15:08:55.312Z,20.30
2018-05-16T15:11:23.596Z,20.70
2018-05-16T15:13:51.076Z,21.00
2018-05-16T15:16:19.324Z,22.30
2018-05-16T15:18:46.859Z,22.30
2018-05-16T15:21:14.351Z,22.70
2018-05-16T15:23:41.829Z,22.80
2018-05-16T15:26:10.126Z,22.20
2018-05-16T15:28:38.389Z,22.30
2018-05-16T15:31:06.040Z,21.80
2018-05-16T15:33:34.271Z,21.40
2018-05-16T15:36:01.811Z,21.20
2018-05-16T15:38:30.080Z,21.30
2018-05-16T15:40:57.542Z,21.20
2018-05-16T15:43:25.072Z,21.30
2018-05-16T15:45:52.568Z,21.70
2018-05-16T15:48:20.030Z,21.70
2018-05-16T15:50:47.527Z,21.80
2018-05-16T15:53:15.007Z,21.80
2018-05-16T15:55:42.500Z,21.90
2018-05-16T15:58:10.736Z,22.70
2018-05-16T16:00:38.215Z,22.20
2018-05-16T16:03:05.795Z,22.30
2018-05-16T16:05:34.069Z,22.10
2018-05-16T16:08:01.669Z,22.50
2018-05-16T16:10:29.848Z,22.90
2018-05-16T16:12:57.408Z,22.80
2018-05-16T16:15:25.680Z,23.10
2018-05-16T16:17:53.693Z,23.10
2018-05-16T16:20:21.188Z,23.30
2018-05-16T16:22:49.423Z,23.50
2018-05-16T16:25:17.209Z,23.50
2018-05-16T16:27:45.557Z,23.80
2018-05-16T16:30:13.859Z,24.00
2018-05-16T16:32:41.326Z,24.00
2018-05-16T16:35:09.285Z,24.10
2018-05-16T16:37:37.663Z,24.40
2018-05-16T16:40:05.159Z,24.40
2018-05-16T16:42:33.438Z,24.60
2018-05-16T16:45:01.759Z,24.70
2018-05-16T16:47:29.564Z,24.70
2018-05-16T16:49:57.199Z,24.70
2018-05-16T16:52:25.635Z,24.90
2018-05-16T16:54:53.431Z,24.90
2018-05-16T16:57:21.120Z,24.90
2018-05-16T16:59:49.516Z,25.20
2018-05-16T17:02:16.991Z,25.20
2018-05-16T17:04:45.325Z,25.50
2018-05-16T17:07:12.830Z,25.50
2018-05-16T17:09:40.362Z,25.60
2018-05-16T17:12:07.935Z,25.70
2018-05-16T17:14:35.638Z,25.80
2018-05-16T17:17:03.134Z,25.90
2018-05-16T17:19:30.660Z,26.00
2018-05-16T17:21:58.170Z,26.00
2018-05-16T17:24:25.665Z,26.10
2018-05-16T17:26:53.261Z,26.20
2018-05-16T17:29:20.707Z,26.40
2018-05-16T17:31:48.966Z,26.60
2018-05-16T17:34:16.426Z,26.60
2018-05-16T17:36:44.404Z,26.70
2018-05-16T17:39:11.900Z,26.80
2018-05-16T17:41:40.175Z,27.00
2018-05-16T17:44:07.643Z,27.00
2018-05-16T17:46:35.578Z,27.10
2018-05-16T17:49:03.045Z,27.30
2018-05-16T17:51:31.349Z,27.60
2018-05-16T17:53:58.841Z,27.60
2018-05-16T17:56:26.365Z,27.70
2018-05-16T17:58:54.864Z,27.90
2018-05-16T18:01:23.118Z,28.20
2018-05-16T18:03:50.601Z,28.20
2018-05-16T18:06:18.093Z,28.30
2018-05-16T18:08:46.323Z,28.60
2018-05-16T18:11:13.816Z,28.60
2018-05-16T18:14:02.080Z,28.70
2018-05-16T18:16:41.510Z,28.90
2018-05-16T18:19:08.975Z,28.90
2018-05-16T18:21:36.455Z,29.00
2018-05-16T18:24:03.939Z,29.10
2018-05-16T18:26:32.197Z,29.30
2018-05-16T18:28:59.672Z,29.30
2018-05-16T18:31:27.192Z,29.20
2018-05-16T18:33:54.654Z,29.10
2018-05-16T18:36:22.141Z,29.10
2018-05-16T18:38:49.644Z,29.00
2018-05-16T18:41:17.131Z,29.00
2018-05-16T18:43:44.586Z,29.60
2018-05-16T18:46:12.079Z,29.10
2018-05-16T18:48:39.655Z,29.10
2018-05-16T18:51:07.160Z,29.20
2018-05-16T18:53:35.399Z,29.50
2018-05-16T18:56:02.952Z,29.40
2018-05-16T18:58:30.417Z,29.40
2018-05-16T19:00:58.668Z,29.60
2018-05-16T19:03:26.238Z,29.60
2018-05-16T19:05:53.715Z,29.60
2018-05-16T19:08:21.210Z,29.80
2018-05-16T19:10:48.711Z,29.90
2018-05-16T19:13:16.212Z,29.90
2018-05-16T19:15:43.683Z,30.00
2018-05-16T19:18:11.207Z,30.10
2018-05-16T19:20:38.698Z,30.20
2018-05-16T19:23:06.264Z,30.40
2018-05-16T19:25:34.555Z,30.70
2018-05-16T19:28:02.884Z,30.90
2018-05-16T19:30:30.439Z,30.80
2018-05-16T19:32:57.938Z,30.90
2018-05-16T19:35:25.536Z,31.10
2018-05-16T19:37:53.079Z,31.20
2018-05-16T19:40:20.569Z,31.20
2018-05-16T19:42:48.289Z,31.30
2018-05-16T19:45:15.788Z,31.80
2018-05-16T19:47:43.281Z,31.40
2018-05-16T19:50:10.772Z,31.40
2018-05-16T19:52:38.308Z,31.50
2018-05-16T19:55:06.575Z,32.20
2018-05-16T19:57:34.144Z,31.70
2018-05-16T20:00:01.688Z,31.70
2018-05-16T20:02:30.107Z,31.70
2018-05-16T20:04:57.578Z,31.80
2018-05-16T20:07:25.127Z,32.40
2018-05-16T20:09:53.471Z,31.80
2018-05-16T20:12:21.035Z,31.90
2018-05-16T20:14:48.775Z,31.80
2018-05-16T20:17:16.210Z,31.80
2018-05-16T20:19:43.686Z,32.00
2018-05-16T20:22:11.172Z,32.00
2018-05-16T20:24:38.676Z,32.10
2018-05-16T20:27:06.194Z,32.30
2018-05-16T20:29:33.651Z,32.40
2018-05-16T20:32:01.151Z,32.50
2018-05-16T20:34:29.064Z,32.60
2018-05-16T20:36:56.600Z,32.60
2018-05-16T20:39:24.088Z,32.70
2018-05-16T20:41:52.366Z,32.80
2018-05-16T20:44:20.644Z,33.00
2018-05-16T20:46:48.144Z,33.00
2018-05-16T20:49:16.549Z,33.30
2018-05-16T20:51:44.060Z,33.30
2018-05-16T20:54:12.328Z,33.50
2018-05-16T20:56:39.948Z,33.60
2018-05-16T20:59:07.490Z,33.60
2018-05-16T21:01:34.980Z,33.60
2018-05-16T21:04:02.512Z,33.90
2018-05-16T21:06:30.251Z,33.90
2018-05-16T21:08:58.534Z,34.20
2018-05-16T21:11:26.012Z,34.20
2018-05-16T21:13:53.491Z,34.20
2018-05-16T21:16:20.995Z,34.50
2018-05-16T21:18:48.480Z,34.50
2018-05-16T21:21:15.980Z,34.70
2018-05-16T21:23:43.463Z,34.70
2018-05-16T21:26:10.960Z,34.90
2018-05-16T21:28:38.486Z,35.00
2018-05-16T21:31:05.971Z,35.10
2018-05-16T21:33:33.485Z,35.20
2018-05-16T21:36:00.964Z,35.20
2018-05-16T21:38:28.474Z,35.40
2018-05-16T21:40:56.097Z,35.40
2018-05-16T21:43:23.575Z,35.40
2018-05-16T21:45:51.047Z,35.30
2018-05-16T21:48:18.576Z,35.30
2018-05-16T21:50:46.091Z,35.40
2018-05-16T21:53:13.608Z,35.40
2018-05-16T21:55:41.085Z,35.40
2018-05-16T21:58:08.690Z,35.30
2018-05-16T22:00:36.202Z,35.40
2018-05-16T22:03:03.687Z,35.50
2018-05-16T22:05:32.076Z,35.50
2018-05-16T22:07:59.575Z,35.50
2018-05-16T22:10:27.264Z,35.60
2018-05-16T22:12:55.548Z,35.90
2018-05-16T22:15:23.843Z,36.10
2018-05-16T22:17:52.092Z,36.10
2018-05-16T22:20:19.571Z,36.30
2018-05-16T22:22:47.061Z,36.20
2018-05-16T22:25:14.564Z,36.40
2018-05-16T22:27:42.055Z,37.10
2018-05-16T22:30:09.029Z,36.60
2018-05-16T22:32:42.164Z,36.70
2018-05-16T22:35:15.295Z,36.80
2018-05-16T22:37:49.197Z,37.10
2018-05-16T22:40:23.346Z,37.10
2018-05-16T22:42:50.476Z,37.20
2018-05-16T22:45:21.551Z,37.10
2018-05-16T22:47:50.027Z,37.30
2018-05-16T22:50:17.497Z,37.40
2018-05-16T22:52:45.107Z,37.40
2018-05-16T22:55:12.619Z,37.50
2018-05-16T22:57:40.122Z,37.60
2018-05-16T23:00:08.356Z,37.80
2018-05-16T23:02:35.856Z,37.90
2018-05-16T23:05:03.318Z,37.90
2018-05-16T23:07:30.815Z,38.00
2018-05-16T23:09:58.312Z,38.00
2018-05-16T23:12:26.535Z,38.30
2018-05-16T23:14:54.078Z,38.30
2018-05-16T23:17:21.550Z,38.50
2018-05-16T23:19:49.055Z,38.40
2018-05-16T23:22:16.593Z,38.40
2018-05-16T23:24:44.076Z,38.50
2018-05-16T23:27:11.538Z,38.50
2018-05-16T23:29:39.035Z,38.60
2018-05-16T23:32:06.509Z,38.70
2018-05-16T23:34:34.038Z,38.80
2018-05-16T23:37:02.295Z,39.10
2018-05-16T23:39:29.775Z,39.20
2018-05-16T23:41:57.239Z,39.70
2018-05-16T23:44:24.756Z,39.10
2018-05-16T23:46:52.211Z,39.10
2018-05-16T23:49:20.471Z,39.20
2018-05-16T23:51:47.947Z,39.30
2018-05-16T23:54:15.448Z,39.10
2018-05-16T23:56:42.918Z,39.30
2018-05-16T23:59:10.602Z,39.30
